Scheldegracht — PFAQ — position and weather

sailwx.info

Track history (hours):
 
Tides and Currents Weather Stations Pressure Air Temp Water Temp Dewpoint Dewpoint Depression Visibility Wind Speed Wind Dir Waves Ship Positions

Scheldegracht

Last reported at 2018-Feb-22 10:02 UTC. Time now 2018-Feb-22 11:11 UTC.
Position N 56°53' E 011°49'.

Length 173 m; beam 26 m.

Type: Cargo ship. MMSI: 244730000.

Date/timePositionNaut miles runAvg speedWind from/ knotsBaromVisibWave heightAir tempDewpointWater temp
2018-Feb-22 10:02N 56°53' E 011°49'114.9
2018-Feb-22 10:00N 56°53' E 011°50'1014.3
2018-Feb-22 09:18N 56°43' E 011°52'9114.8
2018-Feb-22 03:08N 55°16' E 011°05'215.3
2018-Feb-22 03:00N 55°14' E 011°06'714.3
2018-Feb-22 02:30N 55°08' E 010°59'816.1
2018-Feb-22 02:00N 54°60' E 010°59'816.6
2018-Feb-22 01:30N 54°53' E 010°51'816.7
2018-Feb-22 01:00N 54°45' E 010°47'714.0
2018-Feb-22 00:30N 54°39' E 010°53'816.7
2018-Feb-22 00:00N 54°36' E 011°06'917.0
2018-Feb-21 23:30N 54°33' E 011°20'816.8
2018-Feb-21 23:00N 54°30' E 011°33'1016.2
2018-Feb-21 22:23N 54°26' E 011°50'67 6.5
2018-Feb-21 12:00N 55°00' E 013°30'13 4.1 330 / 81027.010.8 2.7-0.8
2018-Feb-21 08:47N 55°02' E 013°53'512.9
2018-Feb-21 08:22N 55°03' E 014°02'512.4
2018-Feb-21 07:58N 55°06' E 014°08'713.1
2018-Feb-21 07:25N 55°12' E 014°16'613.2
2018-Feb-21 07:00N 55°16' E 014°22'713.3
2018-Feb-21 06:28N 55°22' E 014°30'613.1
2018-Feb-21 06:00N 55°26' E 014°37'713.2
2018-Feb-21 05:29N 55°30' E 014°47'713.2
2018-Feb-21 04:59N 55°33' E 014°58'1013.2
2018-Feb-21 04:14N 55°38' E 015°13'313.2
2018-Feb-21 04:00N 55°40' E 015°17'713.2
2018-Feb-21 03:30N 55°43' E 015°27'713.2
2018-Feb-21 03:00N 55°46' E 015°37'713.3
2018-Feb-21 02:30N 55°50' E 015°48'713.4
2018-Feb-21 02:00N 55°53' E 015°58'713.4
2018-Feb-21 01:30N 55°57' E 016°08'713.3
2018-Feb-21 01:00N 56°00' E 016°18'713.3
2018-Feb-21 00:30N 56°04' E 016°28'713.3
2018-Feb-21 00:00N 56°07' E 016°39'2135.0
2018-Feb-21 00:00N 56°06' E 016°36'816.7 030 / 121028.0 5.4 -0.4-0.4
2018-Feb-20 23:30N 56°12' E 016°46'713.3
2018-Feb-20 23:00N 56°18' E 016°51'1013.3
2018-Feb-20 22:14N 56°28' E 016°58'14614.2
2018-Feb-20 12:00N 58°36' E 019°06'7315.2 030 / 81028.7 2.2 -2.3-2.3
2018-Feb-20 07:12N 59°47' E 019°41'316.1
2018-Feb-20 07:00N 59°49' E 019°37'816.1
2018-Feb-20 06:30N 59°55' E 019°27'815.9
2018-Feb-20 06:00N 60°01' E 019°16'816.1
2018-Feb-20 05:30N 60°07' E 019°06'815.1
2018-Feb-20 05:00N 60°14' E 018°60'816.0
2018-Feb-20 04:30N 60°22' E 018°59'7215.5
2018-Feb-19 23:54N 61°07' E 020°54'615.3
2018-Feb-19 23:29N 61°08' E 021°06'510.3
2018-Feb-19 23:00N 61°06' E 021°16'5 9.6
2018-Feb-19 22:30N 61°07' E 021°25'0 0.6
2018-Feb-19 22:00N 61°08' E 021°26'0 0.0
2018-Feb-19 21:22N 61°08' E 021°26'0 0.0
2018-Feb-19 20:54N 61°08' E 021°26'0 0.0
2018-Feb-19 20:28N 61°08' E 021°26'0 0.0
2018-Feb-19 19:57N 61°08' E 021°26'0 0.0
2018-Feb-19 19:30N 61°08' E 021°26'0 0.0
2018-Feb-19 18:59N 61°08' E 021°26'0 0.0
2018-Feb-19 18:27N 61°08' E 021°26'0 0.0
2018-Feb-19 18:00N 61°08' E 021°26'0 0.0
2018-Feb-19 17:30N 61°08' E 021°26'0 0.0
2018-Feb-19 17:00N 61°08' E 021°26'0 0.0
2018-Feb-19 16:30N 61°08' E 021°26'0 0.0
2018-Feb-19 16:00N 61°08' E 021°26'0 0.0
2018-Feb-19 15:30N 61°08' E 021°26'0 0.0
2018-Feb-19 15:00N 61°08' E 021°26'0 0.0
2018-Feb-19 14:30N 61°08' E 021°26'0 0.0
2018-Feb-19 14:00N 61°08' E 021°26'0 0.0
2018-Feb-19 13:28N 61°08' E 021°26'0 0.0
2018-Feb-19 12:58N 61°08' E 021°26'0 0.0
2018-Feb-19 12:28N 61°08' E 021°26'0 0.0
2018-Feb-19 12:00N 61°08' E 021°26'0 0.0
2018-Feb-19 11:30N 61°08' E 021°26'0 0.0
2018-Feb-19 10:57N 61°08' E 021°26'0 0.0
2018-Feb-19 10:28N 61°08' E 021°26'0 0.0
2018-Feb-19 10:00N 61°08' E 021°26'0 0.0
2018-Feb-19 09:30N 61°08' E 021°26'0 0.0
2018-Feb-19 08:57N 61°08' E 021°26'0 0.0
2018-Feb-19 08:30N 61°08' E 021°26'0 0.0
2018-Feb-19 08:00N 61°08' E 021°26'0 0.0
2018-Feb-19 07:30N 61°08' E 021°26'0 0.0
2018-Feb-19 07:00N 61°08' E 021°26'0 0.0
2018-Feb-19 06:30N 61°08' E 021°26'0 0.0
2018-Feb-19 06:00N 61°08' E 021°26'0 0.0
2018-Feb-19 05:30N 61°08' E 021°26'0 0.0
2018-Feb-19 05:00N 61°08' E 021°26'0 0.0
2018-Feb-19 04:30N 61°08' E 021°26'0 0.0
2018-Feb-19 04:00N 61°08' E 021°26'0 0.0
2018-Feb-19 03:30N 61°08' E 021°26'0 0.0
2018-Feb-19 03:00N 61°08' E 021°26'0 0.0
2018-Feb-19 02:30N 61°08' E 021°26'0 0.0
2018-Feb-19 02:00N 61°08' E 021°26'0 0.0
2018-Feb-19 01:30N 61°08' E 021°26'0 0.0
2018-Feb-19 01:00N 61°08' E 021°26'0 0.0
2018-Feb-19 00:30N 61°08' E 021°26'0 0.0
2018-Feb-19 00:00N 61°08' E 021°26'0 0.0
2018-Feb-18 23:30N 61°08' E 021°26'0 0.0
2018-Feb-18 23:00N 61°08' E 021°26'0 0.0
2018-Feb-18 22:30N 61°08' E 021°26'0 0.0
2018-Feb-18 21:58N 61°08' E 021°26'0 0.0
2018-Feb-18 21:30N 61°08' E 021°26'0 0.0
2018-Feb-18 20:58N 61°08' E 021°26'0 0.0
2018-Feb-18 20:30N 61°08' E 021°26'0 0.0
2018-Feb-18 20:00N 61°08' E 021°26'0 0.0
2018-Feb-18 19:30N 61°08' E 021°26'0 0.0
2018-Feb-18 18:58N 61°08' E 021°26'0 0.0
2018-Feb-18 18:30N 61°08' E 021°26'0 0.0
2018-Feb-18 18:00N 61°08' E 021°26'0 0.0
2018-Feb-18 17:30N 61°08' E 021°26'0 0.0
2018-Feb-18 17:00N 61°08' E 021°26'0 0.0
2018-Feb-18 16:30N 61°08' E 021°26'0 0.0
2018-Feb-18 15:58N 61°08' E 021°26'0 0.0
2018-Feb-18 15:30N 61°08' E 021°26'0 0.0
2018-Feb-18 15:00N 61°08' E 021°26'0 0.0
2018-Feb-18 14:30N 61°08' E 021°26'0 0.0
2018-Feb-18 14:00N 61°08' E 021°26'0 0.0
2018-Feb-18 13:30N 61°08' E 021°26'0 0.0
2018-Feb-18 13:00N 61°08' E 021°26'0 0.0
2018-Feb-18 12:30N 61°08' E 021°26'0 0.0
2018-Feb-18 12:00N 61°08' E 021°26'0 0.0
2018-Feb-18 11:30N 61°08' E 021°26'0 0.2
2018-Feb-18 11:00N 61°08' E 021°26'0 0.0
2018-Feb-18 10:30N 61°08' E 021°26'0 0.0
2018-Feb-18 10:00N 61°08' E 021°26'0 0.0
2018-Feb-18 09:29N 61°08' E 021°26'0 0.0
2018-Feb-18 08:59N 61°08' E 021°26'0 0.0
2018-Feb-18 08:29N 61°08' E 021°26'0 0.0
2018-Feb-18 07:59N 61°08' E 021°26'0 0.0
2018-Feb-18 07:29N 61°08' E 021°26'0 0.0
2018-Feb-18 06:59N 61°08' E 021°26'0 0.0
2018-Feb-18 06:29N 61°08' E 021°26'0 0.0
2018-Feb-18 05:59N 61°08' E 021°26'0 0.0
2018-Feb-18 05:29N 61°08' E 021°26'0 0.0
2018-Feb-18 04:59N 61°08' E 021°26'0 0.0
2018-Feb-18 04:30N 61°08' E 021°26'0 0.0
2018-Feb-18 03:59N 61°08' E 021°26'0 0.0
2018-Feb-18 03:29N 61°08' E 021°26'0 0.0
2018-Feb-18 02:59N 61°08' E 021°26'0 0.0
2018-Feb-18 02:29N 61°08' E 021°26'0 0.0
2018-Feb-18 01:59N 61°08' E 021°26'0 0.0
2018-Feb-18 01:29N 61°08' E 021°26'0 0.0
2018-Feb-18 00:59N 61°08' E 021°26'0 0.0
2018-Feb-18 00:29N 61°08' E 021°26'0 0.0
2018-Feb-17 23:59N 61°08' E 021°26'0 0.0
2018-Feb-17 23:29N 61°08' E 021°26'0 0.0
2018-Feb-17 22:59N 61°08' E 021°26'0 0.0
2018-Feb-17 22:29N 61°08' E 021°26'0 0.0
2018-Feb-17 21:59N 61°08' E 021°26'0 0.0
2018-Feb-17 21:28N 61°08' E 021°26'0 0.0
2018-Feb-17 21:00N 61°08' E 021°26'0 0.0
2018-Feb-17 20:30N 61°08' E 021°26'0 0.0
2018-Feb-17 19:59N 61°08' E 021°26'0 0.0
2018-Feb-17 19:28N 61°08' E 021°26'0 0.0
2018-Feb-17 18:59N 61°08' E 021°26'0 0.0
2018-Feb-17 18:29N 61°08' E 021°26'0 0.0
2018-Feb-17 17:59N 61°08' E 021°26'0 0.0
2018-Feb-17 17:29N 61°08' E 021°26'0 0.0
2018-Feb-17 16:59N 61°08' E 021°26'0 0.0
2018-Feb-17 16:29N 61°08' E 021°26'0 0.0
2018-Feb-17 15:59N 61°08' E 021°26'0 0.0
2018-Feb-17 15:29N 61°08' E 021°26'0 0.0
2018-Feb-17 14:59N 61°08' E 021°26'0 0.0
2018-Feb-17 14:29N 61°08' E 021°26'0 0.0
2018-Feb-17 13:59N 61°08' E 021°26'0 0.0
2018-Feb-17 13:29N 61°08' E 021°26'0 0.0
2018-Feb-17 12:59N 61°08' E 021°26'0 0.0
2018-Feb-17 12:29N 61°08' E 021°26'0 0.0
2018-Feb-17 11:59N 61°08' E 021°26'0 0.0
2018-Feb-17 11:29N 61°08' E 021°26'0 0.0
2018-Feb-17 10:59N 61°08' E 021°26'0 0.0
2018-Feb-17 10:29N 61°08' E 021°26'0 0.0
2018-Feb-17 09:59N 61°08' E 021°26'0 0.0
2018-Feb-17 09:29N 61°08' E 021°26'0 0.0
2018-Feb-17 08:59N 61°08' E 021°26'0 0.0
2018-Feb-17 08:29N 61°08' E 021°26'0 0.0
2018-Feb-17 07:59N 61°08' E 021°26'0 0.0
2018-Feb-17 07:29N 61°08' E 021°26'0 0.0
2018-Feb-17 06:59N 61°08' E 021°26'0 0.0
2018-Feb-17 06:29N 61°08' E 021°26'0 0.0
2018-Feb-17 05:59N 61°08' E 021°26'0 0.0
2018-Feb-17 05:29N 61°08' E 021°26'0 0.0
2018-Feb-17 04:59N 61°08' E 021°26'0 0.0
2018-Feb-17 04:29N 61°08' E 021°26'0 0.0
2018-Feb-17 03:59N 61°08' E 021°26'0 0.0
2018-Feb-17 03:29N 61°08' E 021°26'0 0.0
2018-Feb-17 02:59N 61°08' E 021°26'0 0.0
2018-Feb-17 02:29N 61°08' E 021°26'0 0.0
2018-Feb-17 01:59N 61°08' E 021°26'0 0.0
2018-Feb-17 01:29N 61°08' E 021°26'0 0.0
2018-Feb-17 00:59N 61°08' E 021°26'0 0.0
2018-Feb-17 00:29N 61°08' E 021°26'0 0.0
2018-Feb-16 23:59N 61°08' E 021°26'0 0.0
2018-Feb-16 23:30N 61°08' E 021°26'0 0.0
2018-Feb-16 22:59N 61°08' E 021°26'0 0.0
2018-Feb-16 22:28N 61°08' E 021°26'0 0.0
2018-Feb-16 22:00N 61°08' E 021°26'0 0.0
2018-Feb-16 21:26N 61°08' E 021°26'0 0.0
2018-Feb-16 20:57N 61°08' E 021°26'0 0.0
2018-Feb-16 20:26N 61°08' E 021°26'0 0.0
2018-Feb-16 19:58N 61°08' E 021°26'0 0.0
2018-Feb-16 19:29N 61°08' E 021°26'0 0.0
2018-Feb-16 18:58N 61°08' E 021°26'0 0.0
2018-Feb-16 18:28N 61°08' E 021°26'0 0.0
2018-Feb-16 17:58N 61°08' E 021°26'0 0.0
2018-Feb-16 17:29N 61°08' E 021°26'0 0.0
2018-Feb-16 16:58N 61°08' E 021°26'0 0.0
2018-Feb-16 16:25N 61°08' E 021°26'0 0.0
2018-Feb-16 15:58N 61°08' E 021°26'0 0.0
2018-Feb-16 15:26N 61°08' E 021°26'0 0.0
2018-Feb-16 15:00N 61°08' E 021°26'0 0.0
2018-Feb-16 14:30N 61°08' E 021°26'0 0.0
2018-Feb-16 14:00N 61°08' E 021°26'0 0.0
2018-Feb-16 13:29N 61°08' E 021°26'0 0.0
2018-Feb-16 12:59N 61°08' E 021°26'0 0.0
2018-Feb-16 12:23N 61°08' E 021°26'0 0.0
2018-Feb-16 11:59N 61°08' E 021°26'0 0.0
2018-Feb-16 11:29N 61°08' E 021°26'0 0.0
2018-Feb-16 10:59N 61°08' E 021°26'0 0.0
2018-Feb-16 10:29N 61°08' E 021°26'0 0.0
2018-Feb-16 09:59N 61°08' E 021°26'0 0.0
2018-Feb-16 09:28N 61°08' E 021°26'0 0.0
2018-Feb-16 08:59N 61°08' E 021°26'0 0.0
2018-Feb-16 08:28N 61°08' E 021°26'0 0.0
2018-Feb-16 08:01N 61°08' E 021°26'0 0.0
2018-Feb-16 07:29N 61°08' E 021°26'0 0.0
2018-Feb-16 06:59N 61°08' E 021°26'0 0.0
2018-Feb-16 06:30N 61°08' E 021°26'0 0.0
2018-Feb-16 05:59N 61°08' E 021°26'0 0.0
2018-Feb-16 05:28N 61°08' E 021°26'0 0.0
2018-Feb-16 04:58N 61°08' E 021°26'0 0.0
2018-Feb-16 04:28N 61°08' E 021°26'0 0.0
2018-Feb-16 03:59N 61°08' E 021°26'0 0.0
2018-Feb-16 03:28N 61°08' E 021°26'0 0.0
2018-Feb-16 02:58N 61°08' E 021°26'0 0.0
2018-Feb-16 02:26N 61°08' E 021°26'0 0.0
2018-Feb-16 01:59N 61°08' E 021°26'0 0.0
2018-Feb-16 01:25N 61°08' E 021°26'0 0.0
2018-Feb-16 00:59N 61°08' E 021°26'0 0.0
2018-Feb-16 00:25N 61°08' E 021°26'0 0.0
2018-Feb-15 23:53N 61°08' E 021°26'0 0.0
2018-Feb-15 23:18N 61°08' E 021°26'0 0.0
2018-Feb-15 22:57N 61°08' E 021°26'0 0.0
2018-Feb-15 22:30N 61°08' E 021°26'0 0.0
2018-Feb-15 21:59N 61°08' E 021°26'0 0.0
2018-Feb-15 21:30N 61°08' E 021°26'0 0.0
2018-Feb-15 20:53N 61°08' E 021°26'0 0.0
2018-Feb-15 20:30N 61°08' E 021°26'0 0.0
2018-Feb-15 19:50N 61°08' E 021°26'0 0.0
2018-Feb-15 19:26N 61°08' E 021°26'0 0.0
2018-Feb-15 18:53N 61°08' E 021°26'0 0.0
2018-Feb-15 18:25N 61°08' E 021°26'0 0.0
2018-Feb-15 17:58N 61°08' E 021°26'0 0.0
2018-Feb-15 17:30N 61°08' E 021°26'0 0.0
2018-Feb-15 16:59N 61°08' E 021°26'0 0.0
2018-Feb-15 16:29N 61°08' E 021°26'0 0.0
2018-Feb-15 15:59N 61°08' E 021°26'0 0.0
2018-Feb-15 15:27N 61°08' E 021°26'0 0.0
2018-Feb-15 14:59N 61°08' E 021°26'0 0.0
2018-Feb-15 14:27N 61°08' E 021°26'0 0.0
2018-Feb-15 14:00N 61°08' E 021°26'0 0.0
2018-Feb-15 13:28N 61°08' E 021°26'0 0.0
2018-Feb-15 13:00N 61°08' E 021°26'0 0.0
2018-Feb-15 12:28N 61°08' E 021°26'0 0.0
2018-Feb-15 11:59N 61°08' E 021°26'0 0.0
2018-Feb-15 11:25N 61°08' E 021°26'0 0.0
2018-Feb-15 10:56N 61°08' E 021°26'0 0.0
2018-Feb-15 10:28N 61°08' E 021°26'0 0.0
2018-Feb-15 09:58N 61°08' E 021°26'0 0.0
2018-Feb-15 09:28N 61°08' E 021°26'0 0.0
2018-Feb-15 08:58N 61°08' E 021°26'0 0.0
2018-Feb-15 08:28N 61°08' E 021°26'0 0.0
2018-Feb-15 07:58N 61°08' E 021°26'0 0.0
2018-Feb-15 07:28N 61°08' E 021°26'0 0.0
2018-Feb-15 06:58N 61°08' E 021°26'0 0.0
2018-Feb-15 06:31N 61°08' E 021°26'0 0.0
2018-Feb-15 06:01N 61°08' E 021°26'0 0.0
2018-Feb-15 05:30N 61°08' E 021°26'0 0.0
2018-Feb-15 05:00N 61°08' E 021°26'0 0.0
2018-Feb-15 04:30N 61°08' E 021°26'0 0.0
2018-Feb-15 04:00N 61°08' E 021°26'0 0.0
2018-Feb-15 03:30N 61°08' E 021°26'0 0.0
2018-Feb-15 03:00N 61°08' E 021°26'0 0.0
2018-Feb-15 02:30N 61°08' E 021°26'0 0.0
2018-Feb-15 02:00N 61°08' E 021°26'0 0.0
2018-Feb-15 01:30N 61°08' E 021°26'0 0.0
2018-Feb-15 01:00N 61°08' E 021°26'0 0.0
2018-Feb-15 00:30N 61°08' E 021°26'0 0.0
2018-Feb-15 00:00N 61°08' E 021°26'0 0.0
2018-Feb-14 23:30N 61°08' E 021°26'0 0.0
2018-Feb-14 23:00N 61°08' E 021°26'0 0.0
2018-Feb-14 22:30N 61°08' E 021°26'0 0.0
2018-Feb-14 21:58N 61°08' E 021°26'0 0.0
2018-Feb-14 21:30N 61°08' E 021°26'0 0.0
2018-Feb-14 21:00N 61°08' E 021°26'0 0.0
2018-Feb-14 20:30N 61°08' E 021°26'0 0.0
2018-Feb-14 20:00N 61°08' E 021°26'0 0.0
2018-Feb-14 19:30N 61°08' E 021°26'0 0.0
2018-Feb-14 19:00N 61°08' E 021°26'0 0.0
2018-Feb-14 18:30N 61°08' E 021°26'0 0.0
2018-Feb-14 17:57N 61°08' E 021°26'0 0.0
2018-Feb-14 17:30N 61°08' E 021°26'0 0.0
2018-Feb-14 17:00N 61°08' E 021°26'0 0.0
2018-Feb-14 16:30N 61°08' E 021°26'0 0.1
2018-Feb-14 16:01N 61°08' E 021°26'2 3.1
2018-Feb-14 15:30N 61°07' E 021°23'611.9
2018-Feb-14 15:00N 61°07' E 021°11'2 4.9
2018-Feb-14 14:30N 61°08' E 021°07'4 8.7
2018-Feb-14 14:00N 61°08' E 020°58'2612.9
2018-Feb-14 12:00N 60°54' E 020°12'4112.9 240 / 101023.410.8 2.2 0.3
2018-Feb-14 08:50N 60°30' E 019°04'413.3
2018-Feb-14 08:30N 60°26' E 019°02'713.3
2018-Feb-14 07:57N 60°19' E 019°01'613.0
2018-Feb-14 07:30N 60°13' E 019°05'612.9
2018-Feb-14 07:00N 60°08' E 019°12'713.3
2018-Feb-14 06:30N 60°03' E 019°20'613.0
2018-Feb-14 06:00N 59°58' E 019°29'4250.1
2018-Feb-14 06:00N 59°54' E 019°30'4 7.6 160 / 21019.610.8 1.9-0.1
2018-Feb-14 05:30N 59°53' E 019°37'713.1
2018-Feb-14 05:00N 59°48' E 019°45'5510.9
2018-Feb-14 00:00N 58°54' E 019°24'16914.1 220 / 141018.010.8 3.8 1.5
2018-Feb-13 12:00N 56°24' E 017°00'3 6.8 240 / 151014.310.8 5.2 2.110.2
2018-Feb-13 11:30N 56°21' E 017°01'613.2
2018-Feb-13 11:00N 56°15' E 016°56'813.2
2018-Feb-13 10:22N 56°07' E 016°50'512.9
2018-Feb-13 10:00N 56°03' E 016°45'713.4
2018-Feb-13 09:30N 55°60' E 016°35'713.3
2018-Feb-13 09:00N 55°57' E 016°24'713.2
2018-Feb-13 08:30N 55°53' E 016°14'713.3
2018-Feb-13 08:00N 55°50' E 016°04'713.4
2018-Feb-13 07:30N 55°46' E 015°54'713.4
2018-Feb-13 07:00N 55°43' E 015°44'713.3
2018-Feb-13 06:30N 55°40' E 015°33'713.4
2018-Feb-13 06:00N 55°37' E 015°22'3166.5
2018-Feb-13 06:00N 55°36' E 015°18'4 8.5 260 / 161012.010.8 5.5 3.310.0
2018-Feb-13 05:30N 55°34' E 015°12'713.4
2018-Feb-13 04:57N 55°30' E 015°00'613.4
2018-Feb-13 04:30N 55°27' E 014°51'713.3
2018-Feb-13 04:00N 55°24' E 014°41'713.3
2018-Feb-13 03:30N 55°19' E 014°34'713.1
2018-Feb-13 03:00N 55°14' E 014°27'713.1
2018-Feb-13 02:30N 55°09' E 014°19'613.3
2018-Feb-13 02:00N 55°03' E 014°12'713.0
2018-Feb-13 01:28N 54°60' E 014°02'913.2
2018-Feb-13 00:46N 54°57' E 013°47'6013.2
2018-Feb-12 20:15N 54°29' E 012°15'413.4
2018-Feb-12 19:56N 54°25' E 012°11'613.9
2018-Feb-12 19:30N 54°25' E 012°01'1413.4
2018-Feb-12 18:28N 54°28' E 011°38'714.0
2018-Feb-12 18:00N 54°30' E 011°28'713.7
2018-Feb-12 17:30N 54°33' E 011°17'713.1
2018-Feb-12 17:00N 54°36' E 011°07'713.5
2018-Feb-12 16:30N 54°40' E 010°57'612.6
2018-Feb-12 16:00N 54°46' E 010°52'714.4
2018-Feb-12 15:30N 54°53' E 010°53'713.8
2018-Feb-12 15:00N 54°59' E 010°59'713.3
2018-Feb-12 14:30N 55°05' E 011°02'713.3
2018-Feb-12 14:00N 55°11' E 011°05'712.5
2018-Feb-12 13:29N 55°18' E 011°03'  
Track history (hours):
 
Tides and Currents Weather Stations Pressure Air Temp Water Temp Dewpoint Dewpoint Depression Visibility Wind Speed Wind Dir Waves Ship Positions

Scheldegracht

Last reported at 2018-Feb-22 10:02 UTC. Time now 2018-Feb-22 11:12 UTC.
Position N 56°53' E 011°49'.

Length 173 m; beam 26 m.

Type: Cargo ship. MMSI: 244730000.

Date/timePositionNaut miles runAvg speedWind from/ knotsBaromVisibWave heightAir tempDewpointWater temp
2018-Feb-22 10:02N 56°53' E 011°49'114.9
2018-Feb-22 10:00N 56°53' E 011°50'1014.3
2018-Feb-22 09:18N 56°43' E 011°52'9114.8
2018-Feb-22 03:08N 55°16' E 011°05'215.3
2018-Feb-22 03:00N 55°14' E 011°06'714.3
2018-Feb-22 02:30N 55°08' E 010°59'816.1
2018-Feb-22 02:00N 54°60' E 010°59'816.6
2018-Feb-22 01:30N 54°53' E 010°51'816.7
2018-Feb-22 01:00N 54°45' E 010°47'714.0
2018-Feb-22 00:30N 54°39' E 010°53'816.7
2018-Feb-22 00:00N 54°36' E 011°06'917.0
2018-Feb-21 23:30N 54°33' E 011°20'816.8
2018-Feb-21 23:00N 54°30' E 011°33'1016.2
2018-Feb-21 22:23N 54°26' E 011°50'67 6.5
2018-Feb-21 12:00N 55°00' E 013°30'13 4.1 330 / 81027.010.8 2.7-0.8
2018-Feb-21 08:47N 55°02' E 013°53'512.9
2018-Feb-21 08:22N 55°03' E 014°02'512.4
2018-Feb-21 07:58N 55°06' E 014°08'713.1
2018-Feb-21 07:25N 55°12' E 014°16'613.2
2018-Feb-21 07:00N 55°16' E 014°22'713.3
2018-Feb-21 06:28N 55°22' E 014°30'613.1
2018-Feb-21 06:00N 55°26' E 014°37'713.2
2018-Feb-21 05:29N 55°30' E 014°47'713.2
2018-Feb-21 04:59N 55°33' E 014°58'1013.2
2018-Feb-21 04:14N 55°38' E 015°13'313.2
2018-Feb-21 04:00N 55°40' E 015°17'713.2
2018-Feb-21 03:30N 55°43' E 015°27'713.2
2018-Feb-21 03:00N 55°46' E 015°37'713.3
2018-Feb-21 02:30N 55°50' E 015°48'713.4
2018-Feb-21 02:00N 55°53' E 015°58'713.4
2018-Feb-21 01:30N 55°57' E 016°08'713.3
2018-Feb-21 01:00N 56°00' E 016°18'713.3
2018-Feb-21 00:30N 56°04' E 016°28'713.3
2018-Feb-21 00:00N 56°07' E 016°39'2135.0
2018-Feb-21 00:00N 56°06' E 016°36'816.7 030 / 121028.0 5.4 -0.4-0.4
2018-Feb-20 23:30N 56°12' E 016°46'713.3
2018-Feb-20 23:00N 56°18' E 016°51'1013.3
2018-Feb-20 22:14N 56°28' E 016°58'14614.2
2018-Feb-20 12:00N 58°36' E 019°06'7315.2 030 / 81028.7 2.2 -2.3-2.3
2018-Feb-20 07:12N 59°47' E 019°41'316.1
2018-Feb-20 07:00N 59°49' E 019°37'816.1
2018-Feb-20 06:30N 59°55' E 019°27'815.9
2018-Feb-20 06:00N 60°01' E 019°16'816.1
2018-Feb-20 05:30N 60°07' E 019°06'815.1
2018-Feb-20 05:00N 60°14' E 018°60'816.0
2018-Feb-20 04:30N 60°22' E 018°59'7215.5
2018-Feb-19 23:54N 61°07' E 020°54'615.3
2018-Feb-19 23:29N 61°08' E 021°06'510.3
2018-Feb-19 23:00N 61°06' E 021°16'5 9.6
2018-Feb-19 22:30N 61°07' E 021°25'0 0.6
2018-Feb-19 22:00N 61°08' E 021°26'0 0.0
2018-Feb-19 21:22N 61°08' E 021°26'0 0.0
2018-Feb-19 20:54N 61°08' E 021°26'0 0.0
2018-Feb-19 20:28N 61°08' E 021°26'0 0.0
2018-Feb-19 19:57N 61°08' E 021°26'0 0.0
2018-Feb-19 19:30N 61°08' E 021°26'0 0.0
2018-Feb-19 18:59N 61°08' E 021°26'0 0.0
2018-Feb-19 18:27N 61°08' E 021°26'0 0.0
2018-Feb-19 18:00N 61°08' E 021°26'0 0.0
2018-Feb-19 17:30N 61°08' E 021°26'0 0.0
2018-Feb-19 17:00N 61°08' E 021°26'0 0.0
2018-Feb-19 16:30N 61°08' E 021°26'0 0.0
2018-Feb-19 16:00N 61°08' E 021°26'0 0.0
2018-Feb-19 15:30N 61°08' E 021°26'0 0.0
2018-Feb-19 15:00N 61°08' E 021°26'0 0.0
2018-Feb-19 14:30N 61°08' E 021°26'0 0.0
2018-Feb-19 14:00N 61°08' E 021°26'0 0.0
2018-Feb-19 13:28N 61°08' E 021°26'0 0.0
2018-Feb-19 12:58N 61°08' E 021°26'0 0.0
2018-Feb-19 12:28N 61°08' E 021°26'0 0.0
2018-Feb-19 12:00N 61°08' E 021°26'0 0.0
2018-Feb-19 11:30N 61°08' E 021°26'0 0.0
2018-Feb-19 10:57N 61°08' E 021°26'0 0.0
2018-Feb-19 10:28N 61°08' E 021°26'0 0.0
2018-Feb-19 10:00N 61°08' E 021°26'0 0.0
2018-Feb-19 09:30N 61°08' E 021°26'0 0.0
2018-Feb-19 08:57N 61°08' E 021°26'0 0.0
2018-Feb-19 08:30N 61°08' E 021°26'0 0.0
2018-Feb-19 08:00N 61°08' E 021°26'0 0.0
2018-Feb-19 07:30N 61°08' E 021°26'0 0.0
2018-Feb-19 07:00N 61°08' E 021°26'0 0.0
2018-Feb-19 06:30N 61°08' E 021°26'0 0.0
2018-Feb-19 06:00N 61°08' E 021°26'0 0.0
2018-Feb-19 05:30N 61°08' E 021°26'0 0.0
2018-Feb-19 05:00N 61°08' E 021°26'0 0.0
2018-Feb-19 04:30N 61°08' E 021°26'0 0.0
2018-Feb-19 04:00N 61°08' E 021°26'0 0.0
2018-Feb-19 03:30N 61°08' E 021°26'0 0.0
2018-Feb-19 03:00N 61°08' E 021°26'0 0.0
2018-Feb-19 02:30N 61°08' E 021°26'0 0.0
2018-Feb-19 02:00N 61°08' E 021°26'0 0.0
2018-Feb-19 01:30N 61°08' E 021°26'0 0.0
2018-Feb-19 01:00N 61°08' E 021°26'0 0.0
2018-Feb-19 00:30N 61°08' E 021°26'0 0.0
2018-Feb-19 00:00N 61°08' E 021°26'0 0.0
2018-Feb-18 23:30N 61°08' E 021°26'0 0.0
2018-Feb-18 23:00N 61°08' E 021°26'0 0.0
2018-Feb-18 22:30N 61°08' E 021°26'0 0.0
2018-Feb-18 21:58N 61°08' E 021°26'0 0.0
2018-Feb-18 21:30N 61°08' E 021°26'0 0.0
2018-Feb-18 20:58N 61°08' E 021°26'0 0.0
2018-Feb-18 20:30N 61°08' E 021°26'0 0.0
2018-Feb-18 20:00N 61°08' E 021°26'0 0.0
2018-Feb-18 19:30N 61°08' E 021°26'0 0.0
2018-Feb-18 18:58N 61°08' E 021°26'0 0.0
2018-Feb-18 18:30N 61°08' E 021°26'0 0.0
2018-Feb-18 18:00N 61°08' E 021°26'0 0.0
2018-Feb-18 17:30N 61°08' E 021°26'0 0.0
2018-Feb-18 17:00N 61°08' E 021°26'0 0.0
2018-Feb-18 16:30N 61°08' E 021°26'0 0.0
2018-Feb-18 15:58N 61°08' E 021°26'0 0.0
2018-Feb-18 15:30N 61°08' E 021°26'0 0.0
2018-Feb-18 15:00N 61°08' E 021°26'0 0.0
2018-Feb-18 14:30N 61°08' E 021°26'0 0.0
2018-Feb-18 14:00N 61°08' E 021°26'0 0.0
2018-Feb-18 13:30N 61°08' E 021°26'0 0.0
2018-Feb-18 13:00N 61°08' E 021°26'0 0.0
2018-Feb-18 12:30N 61°08' E 021°26'0 0.0
2018-Feb-18 12:00N 61°08' E 021°26'0 0.0
2018-Feb-18 11:30N 61°08' E 021°26'0 0.2
2018-Feb-18 11:00N 61°08' E 021°26'0 0.0
2018-Feb-18 10:30N 61°08' E 021°26'0 0.0
2018-Feb-18 10:00N 61°08' E 021°26'0 0.0
2018-Feb-18 09:29N 61°08' E 021°26'0 0.0
2018-Feb-18 08:59N 61°08' E 021°26'0 0.0
2018-Feb-18 08:29N 61°08' E 021°26'0 0.0
2018-Feb-18 07:59N 61°08' E 021°26'0 0.0
2018-Feb-18 07:29N 61°08' E 021°26'0 0.0
2018-Feb-18 06:59N 61°08' E 021°26'0 0.0
2018-Feb-18 06:29N 61°08' E 021°26'0 0.0
2018-Feb-18 05:59N 61°08' E 021°26'0 0.0
2018-Feb-18 05:29N 61°08' E 021°26'0 0.0
2018-Feb-18 04:59N 61°08' E 021°26'0 0.0
2018-Feb-18 04:30N 61°08' E 021°26'0 0.0
2018-Feb-18 03:59N 61°08' E 021°26'0 0.0
2018-Feb-18 03:29N 61°08' E 021°26'0 0.0
2018-Feb-18 02:59N 61°08' E 021°26'0 0.0
2018-Feb-18 02:29N 61°08' E 021°26'0 0.0
2018-Feb-18 01:59N 61°08' E 021°26'0 0.0
2018-Feb-18 01:29N 61°08' E 021°26'0 0.0
2018-Feb-18 00:59N 61°08' E 021°26'0 0.0
2018-Feb-18 00:29N 61°08' E 021°26'0 0.0
2018-Feb-17 23:59N 61°08' E 021°26'0 0.0
2018-Feb-17 23:29N 61°08' E 021°26'0 0.0
2018-Feb-17 22:59N 61°08' E 021°26'0 0.0
2018-Feb-17 22:29N 61°08' E 021°26'0 0.0
2018-Feb-17 21:59N 61°08' E 021°26'0 0.0
2018-Feb-17 21:28N 61°08' E 021°26'0 0.0
2018-Feb-17 21:00N 61°08' E 021°26'0 0.0
2018-Feb-17 20:30N 61°08' E 021°26'0 0.0
2018-Feb-17 19:59N 61°08' E 021°26'0 0.0
2018-Feb-17 19:28N 61°08' E 021°26'0 0.0
2018-Feb-17 18:59N 61°08' E 021°26'0 0.0
2018-Feb-17 18:29N 61°08' E 021°26'0 0.0
2018-Feb-17 17:59N 61°08' E 021°26'0 0.0
2018-Feb-17 17:29N 61°08' E 021°26'0 0.0
2018-Feb-17 16:59N 61°08' E 021°26'0 0.0
2018-Feb-17 16:29N 61°08' E 021°26'0 0.0
2018-Feb-17 15:59N 61°08' E 021°26'0 0.0
2018-Feb-17 15:29N 61°08' E 021°26'0 0.0
2018-Feb-17 14:59N 61°08' E 021°26'0 0.0
2018-Feb-17 14:29N 61°08' E 021°26'0 0.0
2018-Feb-17 13:59N 61°08' E 021°26'0 0.0
2018-Feb-17 13:29N 61°08' E 021°26'0 0.0
2018-Feb-17 12:59N 61°08' E 021°26'0 0.0
2018-Feb-17 12:29N 61°08' E 021°26'0 0.0
2018-Feb-17 11:59N 61°08' E 021°26'0 0.0
2018-Feb-17 11:29N 61°08' E 021°26'0 0.0
2018-Feb-17 10:59N 61°08' E 021°26'0 0.0
2018-Feb-17 10:29N 61°08' E 021°26'0 0.0
2018-Feb-17 09:59N 61°08' E 021°26'0 0.0
2018-Feb-17 09:29N 61°08' E 021°26'0 0.0
2018-Feb-17 08:59N 61°08' E 021°26'0 0.0
2018-Feb-17 08:29N 61°08' E 021°26'0 0.0
2018-Feb-17 07:59N 61°08' E 021°26'0 0.0
2018-Feb-17 07:29N 61°08' E 021°26'0 0.0
2018-Feb-17 06:59N 61°08' E 021°26'0 0.0
2018-Feb-17 06:29N 61°08' E 021°26'0 0.0
2018-Feb-17 05:59N 61°08' E 021°26'0 0.0
2018-Feb-17 05:29N 61°08' E 021°26'0 0.0
2018-Feb-17 04:59N 61°08' E 021°26'0 0.0
2018-Feb-17 04:29N 61°08' E 021°26'0 0.0
2018-Feb-17 03:59N 61°08' E 021°26'0 0.0
2018-Feb-17 03:29N 61°08' E 021°26'0 0.0
2018-Feb-17 02:59N 61°08' E 021°26'0 0.0
2018-Feb-17 02:29N 61°08' E 021°26'0 0.0
2018-Feb-17 01:59N 61°08' E 021°26'0 0.0
2018-Feb-17 01:29N 61°08' E 021°26'0 0.0
2018-Feb-17 00:59N 61°08' E 021°26'0 0.0
2018-Feb-17 00:29N 61°08' E 021°26'0 0.0
2018-Feb-16 23:59N 61°08' E 021°26'0 0.0
2018-Feb-16 23:30N 61°08' E 021°26'0 0.0
2018-Feb-16 22:59N 61°08' E 021°26'0 0.0
2018-Feb-16 22:28N 61°08' E 021°26'0 0.0
2018-Feb-16 22:00N 61°08' E 021°26'0 0.0
2018-Feb-16 21:26N 61°08' E 021°26'0 0.0
2018-Feb-16 20:57N 61°08' E 021°26'0 0.0
2018-Feb-16 20:26N 61°08' E 021°26'0 0.0
2018-Feb-16 19:58N 61°08' E 021°26'0 0.0
2018-Feb-16 19:29N 61°08' E 021°26'0 0.0
2018-Feb-16 18:58N 61°08' E 021°26'0 0.0
2018-Feb-16 18:28N 61°08' E 021°26'0 0.0
2018-Feb-16 17:58N 61°08' E 021°26'0 0.0
2018-Feb-16 17:29N 61°08' E 021°26'0 0.0
2018-Feb-16 16:58N 61°08' E 021°26'0 0.0
2018-Feb-16 16:25N 61°08' E 021°26'0 0.0
2018-Feb-16 15:58N 61°08' E 021°26'0 0.0
2018-Feb-16 15:26N 61°08' E 021°26'0 0.0
2018-Feb-16 15:00N 61°08' E 021°26'0 0.0
2018-Feb-16 14:30N 61°08' E 021°26'0 0.0
2018-Feb-16 14:00N 61°08' E 021°26'0 0.0
2018-Feb-16 13:29N 61°08' E 021°26'0 0.0
2018-Feb-16 12:59N 61°08' E 021°26'0 0.0
2018-Feb-16 12:23N 61°08' E 021°26'0 0.0
2018-Feb-16 11:59N 61°08' E 021°26'0 0.0
2018-Feb-16 11:29N 61°08' E 021°26'0 0.0
2018-Feb-16 10:59N 61°08' E 021°26'0 0.0
2018-Feb-16 10:29N 61°08' E 021°26'0 0.0
2018-Feb-16 09:59N 61°08' E 021°26'0 0.0
2018-Feb-16 09:28N 61°08' E 021°26'0 0.0
2018-Feb-16 08:59N 61°08' E 021°26'0 0.0
2018-Feb-16 08:28N 61°08' E 021°26'0 0.0
2018-Feb-16 08:01N 61°08' E 021°26'0 0.0
2018-Feb-16 07:29N 61°08' E 021°26'0 0.0
2018-Feb-16 06:59N 61°08' E 021°26'0 0.0
2018-Feb-16 06:30N 61°08' E 021°26'0 0.0
2018-Feb-16 05:59N 61°08' E 021°26'0 0.0
2018-Feb-16 05:28N 61°08' E 021°26'0 0.0
2018-Feb-16 04:58N 61°08' E 021°26'0 0.0
2018-Feb-16 04:28N 61°08' E 021°26'0 0.0
2018-Feb-16 03:59N 61°08' E 021°26'0 0.0
2018-Feb-16 03:28N 61°08' E 021°26'0 0.0
2018-Feb-16 02:58N 61°08' E 021°26'0 0.0
2018-Feb-16 02:26N 61°08' E 021°26'0 0.0
2018-Feb-16 01:59N 61°08' E 021°26'0 0.0
2018-Feb-16 01:25N 61°08' E 021°26'0 0.0
2018-Feb-16 00:59N 61°08' E 021°26'0 0.0
2018-Feb-16 00:25N 61°08' E 021°26'0 0.0
2018-Feb-15 23:53N 61°08' E 021°26'0 0.0
2018-Feb-15 23:18N 61°08' E 021°26'0 0.0
2018-Feb-15 22:57N 61°08' E 021°26'0 0.0
2018-Feb-15 22:30N 61°08' E 021°26'0 0.0
2018-Feb-15 21:59N 61°08' E 021°26'0 0.0
2018-Feb-15 21:30N 61°08' E 021°26'0 0.0
2018-Feb-15 20:53N 61°08' E 021°26'0 0.0
2018-Feb-15 20:30N 61°08' E 021°26'0 0.0
2018-Feb-15 19:50N 61°08' E 021°26'0 0.0
2018-Feb-15 19:26N 61°08' E 021°26'0 0.0
2018-Feb-15 18:53N 61°08' E 021°26'0 0.0
2018-Feb-15 18:25N 61°08' E 021°26'0 0.0
2018-Feb-15 17:58N 61°08' E 021°26'0 0.0
2018-Feb-15 17:30N 61°08' E 021°26'0 0.0
2018-Feb-15 16:59N 61°08' E 021°26'0 0.0
2018-Feb-15 16:29N 61°08' E 021°26'0 0.0
2018-Feb-15 15:59N 61°08' E 021°26'0 0.0
2018-Feb-15 15:27N 61°08' E 021°26'0 0.0
2018-Feb-15 14:59N 61°08' E 021°26'0 0.0
2018-Feb-15 14:27N 61°08' E 021°26'0 0.0
2018-Feb-15 14:00N 61°08' E 021°26'0 0.0
2018-Feb-15 13:28N 61°08' E 021°26'0 0.0
2018-Feb-15 13:00N 61°08' E 021°26'0 0.0
2018-Feb-15 12:28N 61°08' E 021°26'0 0.0
2018-Feb-15 11:59N 61°08' E 021°26'0 0.0
2018-Feb-15 11:25N 61°08' E 021°26'0 0.0
2018-Feb-15 10:56N 61°08' E 021°26'0 0.0
2018-Feb-15 10:28N 61°08' E 021°26'0 0.0
2018-Feb-15 09:58N 61°08' E 021°26'0 0.0
2018-Feb-15 09:28N 61°08' E 021°26'0 0.0
2018-Feb-15 08:58N 61°08' E 021°26'0 0.0
2018-Feb-15 08:28N 61°08' E 021°26'0 0.0
2018-Feb-15 07:58N 61°08' E 021°26'0 0.0
2018-Feb-15 07:28N 61°08' E 021°26'0 0.0
2018-Feb-15 06:58N 61°08' E 021°26'0 0.0
2018-Feb-15 06:31N 61°08' E 021°26'0 0.0
2018-Feb-15 06:01N 61°08' E 021°26'0 0.0
2018-Feb-15 05:30N 61°08' E 021°26'0 0.0
2018-Feb-15 05:00N 61°08' E 021°26'0 0.0
2018-Feb-15 04:30N 61°08' E 021°26'0 0.0
2018-Feb-15 04:00N 61°08' E 021°26'0 0.0
2018-Feb-15 03:30N 61°08' E 021°26'0 0.0
2018-Feb-15 03:00N 61°08' E 021°26'0 0.0
2018-Feb-15 02:30N 61°08' E 021°26'0 0.0
2018-Feb-15 02:00N 61°08' E 021°26'0 0.0
2018-Feb-15 01:30N 61°08' E 021°26'0 0.0
2018-Feb-15 01:00N 61°08' E 021°26'0 0.0
2018-Feb-15 00:30N 61°08' E 021°26'0 0.0
2018-Feb-15 00:00N 61°08' E 021°26'0 0.0
2018-Feb-14 23:30N 61°08' E 021°26'0 0.0
2018-Feb-14 23:00N 61°08' E 021°26'0 0.0
2018-Feb-14 22:30N 61°08' E 021°26'0 0.0
2018-Feb-14 21:58N 61°08' E 021°26'0 0.0
2018-Feb-14 21:30N 61°08' E 021°26'0 0.0
2018-Feb-14 21:00N 61°08' E 021°26'0 0.0
2018-Feb-14 20:30N 61°08' E 021°26'0 0.0
2018-Feb-14 20:00N 61°08' E 021°26'0 0.0
2018-Feb-14 19:30N 61°08' E 021°26'0 0.0
2018-Feb-14 19:00N 61°08' E 021°26'0 0.0
2018-Feb-14 18:30N 61°08' E 021°26'0 0.0
2018-Feb-14 17:57N 61°08' E 021°26'0 0.0
2018-Feb-14 17:30N 61°08' E 021°26'0 0.0
2018-Feb-14 17:00N 61°08' E 021°26'0 0.0
2018-Feb-14 16:30N 61°08' E 021°26'0 0.1
2018-Feb-14 16:01N 61°08' E 021°26'2 3.1
2018-Feb-14 15:30N 61°07' E 021°23'611.9
2018-Feb-14 15:00N 61°07' E 021°11'2 4.9
2018-Feb-14 14:30N 61°08' E 021°07'4 8.7
2018-Feb-14 14:00N 61°08' E 020°58'2612.9
2018-Feb-14 12:00N 60°54' E 020°12'4112.9 240 / 101023.410.8 2.2 0.3
2018-Feb-14 08:50N 60°30' E 019°04'413.3
2018-Feb-14 08:30N 60°26' E 019°02'713.3
2018-Feb-14 07:57N 60°19' E 019°01'613.0
2018-Feb-14 07:30N 60°13' E 019°05'612.9
2018-Feb-14 07:00N 60°08' E 019°12'713.3
2018-Feb-14 06:30N 60°03' E 019°20'613.0
2018-Feb-14 06:00N 59°58' E 019°29'4250.1
2018-Feb-14 06:00N 59°54' E 019°30'4 7.6 160 / 21019.610.8 1.9-0.1
2018-Feb-14 05:30N 59°53' E 019°37'713.1
2018-Feb-14 05:00N 59°48' E 019°45'5510.9
2018-Feb-14 00:00N 58°54' E 019°24'16914.1 220 / 141018.010.8 3.8 1.5
2018-Feb-13 12:00N 56°24' E 017°00'3 6.8 240 / 151014.310.8 5.2 2.110.2
2018-Feb-13 11:30N 56°21' E 017°01'613.2
2018-Feb-13 11:00N 56°15' E 016°56'813.2
2018-Feb-13 10:22N 56°07' E 016°50'512.9
2018-Feb-13 10:00N 56°03' E 016°45'713.4
2018-Feb-13 09:30N 55°60' E 016°35'713.3
2018-Feb-13 09:00N 55°57' E 016°24'713.2
2018-Feb-13 08:30N 55°53' E 016°14'713.3
2018-Feb-13 08:00N 55°50' E 016°04'713.4
2018-Feb-13 07:30N 55°46' E 015°54'713.4
2018-Feb-13 07:00N 55°43' E 015°44'713.3
2018-Feb-13 06:30N 55°40' E 015°33'713.4
2018-Feb-13 06:00N 55°37' E 015°22'3166.5
2018-Feb-13 06:00N 55°36' E 015°18'4 8.5 260 / 161012.010.8 5.5 3.310.0
2018-Feb-13 05:30N 55°34' E 015°12'713.4
2018-Feb-13 04:57N 55°30' E 015°00'613.4
2018-Feb-13 04:30N 55°27' E 014°51'713.3
2018-Feb-13 04:00N 55°24' E 014°41'713.3
2018-Feb-13 03:30N 55°19' E 014°34'713.1
2018-Feb-13 03:00N 55°14' E 014°27'713.1
2018-Feb-13 02:30N 55°09' E 014°19'613.3
2018-Feb-13 02:00N 55°03' E 014°12'713.0
2018-Feb-13 01:28N 54°60' E 014°02'913.2
2018-Feb-13 00:46N 54°57' E 013°47'6013.2
2018-Feb-12 20:15N 54°29' E 012°15'413.4
2018-Feb-12 19:56N 54°25' E 012°11'613.9
2018-Feb-12 19:30N 54°25' E 012°01'1413.4
2018-Feb-12 18:28N 54°28' E 011°38'714.0
2018-Feb-12 18:00N 54°30' E 011°28'713.7
2018-Feb-12 17:30N 54°33' E 011°17'713.1
2018-Feb-12 17:00N 54°36' E 011°07'713.5
2018-Feb-12 16:30N 54°40' E 010°57'612.6
2018-Feb-12 16:00N 54°46' E 010°52'714.4
2018-Feb-12 15:30N 54°53' E 010°53'713.8
2018-Feb-12 15:00N 54°59' E 010°59'713.3
2018-Feb-12 14:30N 55°05' E 011°02'713.3
2018-Feb-12 14:00N 55°11' E 011°05'712.5
2018-Feb-12 13:29N 55°18' E 011°03'  

Dump ship's entire track history